createdAt,value
2023-03-11T00:01:16.374Z,3.89
2023-03-11T00:06:17.837Z,3.60
2023-03-11T00:11:19.809Z,3.51
2023-03-11T00:16:21.304Z,3.18
2023-03-11T00:21:22.755Z,3.79
2023-03-11T00:26:24.181Z,3.45
2023-03-11T00:31:26.577Z,3.13
2023-03-11T00:36:33.891Z,3.17
2023-03-11T00:41:35.346Z,3.41
2023-03-11T00:46:36.870Z,3.45
2023-03-11T00:51:38.318Z,3.41
2023-03-11T00:56:41.732Z,3.26
2023-03-11T01:01:43.712Z,3.14
2023-03-11T01:06:45.915Z,3.18
2023-03-11T01:11:47.529Z,2.96
2023-03-11T01:16:48.901Z,3.06
2023-03-11T01:21:50.858Z,2.61
2023-03-11T01:26:52.312Z,2.95
2023-03-11T01:31:53.753Z,3.31
2023-03-11T01:36:55.285Z,2.97
2023-03-11T01:41:57.040Z,2.89
2023-03-11T01:47:02.234Z,3.44
2023-03-11T01:52:09.821Z,2.83
2023-03-11T01:57:21.348Z,2.40
2023-03-11T02:02:42.859Z,2.95
2023-03-11T02:07:45.191Z,2.77
2023-03-11T02:12:51.038Z,2.78
2023-03-11T02:18:05.151Z,2.86
2023-03-11T02:23:07.146Z,2.88
2023-03-11T02:28:12.610Z,2.61
2023-03-11T02:33:15.379Z,2.46
2023-03-11T02:38:18.993Z,2.33
2023-03-11T02:43:26.414Z,2.98
2023-03-11T02:48:29.608Z,2.73
2023-03-11T02:53:35.856Z,2.38
2023-03-11T02:58:37.572Z,2.49
2023-03-11T03:03:39.071Z,2.45
2023-03-11T03:08:40.638Z,2.59
2023-03-11T03:13:42.324Z,2.61
2023-03-11T03:18:43.852Z,2.46
2023-03-11T03:23:45.524Z,2.09
2023-03-11T03:28:47.210Z,2.21
2023-03-11T03:33:49.001Z,2.22
2023-03-11T03:38:58.878Z,2.12
2023-03-11T03:44:05.253Z,2.30
2023-03-11T03:49:08.963Z,1.96
2023-03-11T03:54:10.976Z,2.00
2023-03-11T03:59:12.888Z,1.86
2023-03-11T04:04:19.204Z,1.63
2023-03-11T04:09:21.297Z,1.73
2023-03-11T04:14:22.971Z,1.72
2023-03-11T04:19:29.880Z,2.03
2023-03-11T04:24:32.202Z,2.04
2023-03-11T04:29:34.044Z,2.11
2023-03-11T04:34:36.914Z,1.96
2023-03-11T04:39:39.013Z,1.77
2023-03-11T04:44:41.113Z,1.61
2023-03-11T04:49:42.941Z,1.88
2023-03-11T04:54:46.015Z,1.83
2023-03-11T04:59:47.727Z,1.86
2023-03-11T05:04:49.972Z,2.15
2023-03-11T05:09:51.680Z,1.95
2023-03-11T05:14:53.618Z,2.12
2023-03-11T05:19:55.866Z,1.92
2023-03-11T05:25:02.452Z,2.34
2023-03-11T05:30:05.350Z,1.72
2023-03-11T05:35:09.796Z,1.84
2023-03-11T05:40:14.762Z,1.88
2023-03-11T05:45:17.400Z,1.87
2023-03-11T05:50:21.790Z,1.84
2023-03-11T05:55:25.011Z,1.88
2023-03-11T06:00:29.454Z,1.48
2023-03-11T06:05:33.497Z,1.73
2023-03-11T06:10:35.020Z,1.75
2023-03-11T06:15:38.394Z,1.82
2023-03-11T06:20:40.594Z,1.78
2023-03-11T06:25:42.263Z,1.16
2023-03-11T06:30:44.340Z,1.71
2023-03-11T06:36:02.757Z,2.30
2023-03-11T06:41:06.064Z,1.27
2023-03-11T06:46:16.764Z,1.49
2023-03-11T06:51:21.257Z,1.94
2023-03-11T06:56:23.804Z,1.60
2023-03-11T07:01:30.899Z,1.28
2023-03-11T07:06:34.361Z,1.62
2023-03-11T07:11:48.094Z,1.79
2023-03-11T07:16:56.366Z,1.35
2023-03-11T07:22:09.345Z,1.25
2023-03-11T07:27:10.892Z,1.51
2023-03-11T07:32:12.372Z,1.21
2023-03-11T07:37:14.290Z,1.42
2023-03-11T07:42:15.806Z,1.65
2023-03-11T07:47:17.218Z,1.57
2023-03-11T07:52:18.901Z,1.26
2023-03-11T07:57:20.353Z,1.58
2023-03-11T08:02:21.806Z,1.72
2023-03-11T08:07:23.325Z,1.64
2023-03-11T08:12:24.796Z,1.73
2023-03-11T08:17:26.231Z,1.57
2023-03-11T08:22:27.666Z,1.54
2023-03-11T08:27:29.447Z,1.97
2023-03-11T08:32:31.615Z,2.09
2023-03-11T08:37:33.125Z,1.99
2023-03-11T08:42:36.250Z,1.86
2023-03-11T08:47:39.307Z,1.98
2023-03-11T08:52:40.864Z,2.14
2023-03-11T08:57:42.337Z,1.98
2023-03-11T09:02:43.881Z,1.79
2023-03-11T09:07:45.462Z,2.03
2023-03-11T09:12:46.885Z,1.71
2023-03-11T09:17:48.314Z,1.89
2023-03-11T09:22:49.861Z,1.65
2023-03-11T09:27:51.404Z,1.81
2023-03-11T09:32:52.893Z,2.01
2023-03-11T09:37:54.360Z,2.07
2023-03-11T09:43:36.466Z,2.14
2023-03-11T09:48:48.675Z,1.86
2023-03-11T09:53:56.449Z,2.47
2023-03-11T09:59:07.990Z,2.09
2023-03-11T10:04:26.922Z,1.86
2023-03-11T10:09:47.943Z,1.87
2023-03-11T10:14:55.093Z,2.27
2023-03-11T10:20:10.793Z,2.20
2023-03-11T10:25:19.900Z,2.25
2023-03-11T10:30:24.707Z,2.43
2023-03-11T10:35:41.013Z,2.83
2023-03-11T10:40:45.615Z,2.34
2023-03-11T10:45:51.091Z,2.39
2023-03-11T10:51:04.120Z,2.49
2023-03-11T10:56:05.684Z,2.58
2023-03-11T11:01:17.637Z,2.67
2023-03-11T11:06:29.407Z,2.70
2023-03-11T11:11:31.799Z,2.59
2023-03-11T11:16:35.200Z,2.58
2023-03-11T11:21:39.671Z,2.30
2023-03-11T11:26:41.524Z,2.74
2023-03-11T11:31:45.888Z,2.40
2023-03-11T11:36:54.820Z,2.75
2023-03-11T11:41:57.031Z,3.22
2023-03-11T11:47:05.957Z,3.04
2023-03-11T11:52:22.541Z,3.18
2023-03-11T11:57:24.636Z,3.46
2023-03-11T12:02:47.386Z,3.33
2023-03-11T12:08:35.073Z,2.54
2023-03-11T12:14:04.276Z,2.41
2023-03-11T12:19:12.031Z,2.39
2023-03-11T12:24:53.167Z,2.38
2023-03-11T12:30:27.320Z,2.65
2023-03-11T12:35:32.183Z,2.44
2023-03-11T12:40:42.488Z,1.88
2023-03-11T12:45:49.542Z,1.83
2023-03-11T12:50:51.050Z,1.96
2023-03-11T12:56:11.202Z,2.36
2023-03-11T13:01:25.966Z,2.85
2023-03-11T13:06:38.717Z,2.48
2023-03-11T13:11:46.269Z,2.62
2023-03-11T13:16:48.632Z,2.56
2023-03-11T13:21:50.100Z,2.91
2023-03-11T13:27:04.448Z,3.14
2023-03-11T13:32:42.247Z,2.85
2023-03-11T13:38:08.334Z,2.85
2023-03-11T13:43:16.717Z,2.86
2023-03-11T13:48:31.952Z,3.02
2023-03-11T13:53:38.522Z,3.08
2023-03-11T13:58:39.956Z,3.20
2023-03-11T14:03:42.935Z,2.93
2023-03-11T14:08:55.713Z,2.82
2023-03-11T14:13:57.151Z,3.22
2023-03-11T14:19:08.691Z,3.33
2023-03-11T14:24:17.259Z,3.22
2023-03-11T14:29:20.776Z,3.17
2023-03-11T14:34:27.557Z,3.12
2023-03-11T14:39:36.397Z,2.81
2023-03-11T14:44:41.793Z,3.30
2023-03-11T14:49:44.065Z,3.12
2023-03-11T14:54:46.641Z,3.24
2023-03-11T14:59:50.612Z,3.21
2023-03-11T15:04:53.695Z,3.20
2023-03-11T15:09:56.109Z,3.21
2023-03-11T15:14:57.581Z,2.99
2023-03-11T15:19:59.298Z,2.83
2023-03-11T15:25:04.064Z,2.83
2023-03-11T15:30:22.533Z,2.85
2023-03-11T15:35:26.806Z,2.98
2023-03-11T15:40:43.941Z,2.98
2023-03-11T15:45:46.499Z,2.89
2023-03-11T15:50:53.643Z,3.08
2023-03-11T15:56:06.890Z,3.10
2023-03-11T16:01:09.500Z,2.96
2023-03-11T16:06:10.933Z,3.12
2023-03-11T16:11:12.695Z,2.87
2023-03-11T16:16:17.545Z,3.20
2023-03-11T16:21:21.370Z,3.00
2023-03-11T16:26:23.017Z,2.74
2023-03-11T16:31:24.489Z,3.07
2023-03-11T16:36:26.449Z,3.24
2023-03-11T16:41:28.160Z,2.99
2023-03-11T16:46:29.666Z,2.91
2023-03-11T16:51:31.480Z,2.68
2023-03-11T16:56:33.147Z,2.72
2023-03-11T17:01:38.487Z,2.34
2023-03-11T17:06:40.245Z,2.79
2023-03-11T17:11:41.710Z,2.57
2023-03-11T17:16:44.682Z,2.58
2023-03-11T17:21:46.395Z,2.36
2023-03-11T17:26:47.816Z,2.34
2023-03-11T17:31:49.318Z,2.30
2023-03-11T17:36:50.777Z,1.99
2023-03-11T17:41:52.275Z,1.61
2023-03-11T17:46:53.771Z,1.63
2023-03-11T17:51:55.224Z,2.17
2023-03-11T17:56:56.778Z,1.79
2023-03-11T18:01:58.218Z,2.14
2023-03-11T18:06:59.656Z,1.80
2023-03-11T18:12:02.532Z,2.08
2023-03-11T18:17:04.088Z,2.23
2023-03-11T18:22:05.570Z,2.16
2023-03-11T18:27:07.007Z,2.35
2023-03-11T18:32:08.490Z,1.96
2023-03-11T18:37:09.960Z,2.02
2023-03-11T18:42:11.618Z,1.97
2023-03-11T18:47:13.045Z,1.73
2023-03-11T18:52:14.598Z,1.89
2023-03-11T18:57:16.123Z,1.41
2023-03-11T19:02:17.808Z,1.66
2023-03-11T19:07:19.775Z,1.55
2023-03-11T19:12:21.244Z,1.12
2023-03-11T19:17:22.698Z,1.27
2023-03-11T19:22:24.287Z,1.36
2023-03-11T19:27:25.721Z,0.94
2023-03-11T19:32:27.261Z,1.06
2023-03-11T19:37:30.474Z,1.09
2023-03-11T19:42:35.150Z,1.03
2023-03-11T19:47:37.156Z,0.81
2023-03-11T19:52:38.673Z,0.99
2023-03-11T19:57:40.132Z,0.86
2023-03-11T20:02:41.778Z,0.96
2023-03-11T20:07:43.331Z,0.73
2023-03-11T20:12:59.637Z,0.56
2023-03-11T20:18:05.423Z,0.68
2023-03-11T20:23:06.972Z,0.78
2023-03-11T20:28:09.031Z,0.80
2023-03-11T20:33:10.549Z,0.57
2023-03-11T20:38:12.904Z,0.38
2023-03-11T20:43:14.401Z,0.31
2023-03-11T20:48:15.855Z,0.28
2023-03-11T20:53:17.456Z,0.43
2023-03-11T20:58:18.974Z,0.58
2023-03-11T21:03:20.529Z,0.45
2023-03-11T21:08:21.999Z,0.52
2023-03-11T21:13:23.505Z,0.11
2023-03-11T21:18:25.017Z,0.27
2023-03-11T21:23:26.716Z,0.10
2023-03-11T21:28:28.624Z,0.08
2023-03-11T21:33:30.734Z,-0.03
2023-03-11T21:38:32.727Z,0.11
2023-03-11T21:43:34.558Z,0.05
2023-03-11T21:48:36.067Z,-0.05
2023-03-11T21:53:37.916Z,-0.19
2023-03-11T21:58:40.279Z,-0.20
2023-03-11T22:03:41.832Z,-0.37
2023-03-11T22:08:43.430Z,-0.23
2023-03-11T22:13:51.022Z,-0.14
2023-03-11T22:18:53.101Z,-0.21
2023-03-11T22:23:54.683Z,-0.21
2023-03-11T22:28:56.111Z,-0.33
2023-03-11T22:33:57.583Z,-0.35
2023-03-11T22:39:00.976Z,-0.31
2023-03-11T22:44:02.593Z,-0.33
2023-03-11T22:49:04.108Z,-0.38
2023-03-11T22:54:05.626Z,-0.27
2023-03-11T22:59:07.081Z,-0.28
2023-03-11T23:04:08.630Z,-0.39
2023-03-11T23:09:10.171Z,-0.37
2023-03-11T23:14:11.602Z,-0.42
2023-03-11T23:19:13.534Z,-0.41
2023-03-11T23:24:14.975Z,-0.35
2023-03-11T23:29:16.423Z,-0.37
2023-03-11T23:34:17.863Z,-0.44
2023-03-11T23:39:19.297Z,-0.40
2023-03-11T23:44:20.799Z,-0.46
2023-03-11T23:49:22.401Z,-0.27
2023-03-11T23:54:23.838Z,-0.34
2023-03-11T23:59:25.262Z,-0.49
